createdAt,value
2018-05-27T00:01:43.921Z,19.87
2018-05-27T00:04:11.397Z,32.93
2018-05-27T00:06:39.632Z,33.50
2018-05-27T00:09:17.488Z,29.17
2018-05-27T00:11:44.614Z,22.60
2018-05-27T00:14:11.674Z,21.83
2018-05-27T00:16:38.463Z,22.67
2018-05-27T00:19:05.962Z,22.80
2018-05-27T00:21:32.862Z,21.23
2018-05-27T00:23:59.681Z,20.63
2018-05-27T00:26:26.434Z,27.77
2018-05-27T00:28:53.503Z,24.93
2018-05-27T00:31:20.916Z,27.17
2018-05-27T00:33:47.865Z,21.37
2018-05-27T00:36:14.737Z,20.70
2018-05-27T00:38:41.528Z,20.57
2018-05-27T00:41:09.172Z,20.20
2018-05-27T00:43:36.404Z,18.83
2018-05-27T00:46:04.186Z,20.90
2018-05-27T00:48:31.907Z,19.53
2018-05-27T00:50:58.685Z,24.93
2018-05-27T00:53:32.211Z,20.83
2018-05-27T00:55:59.005Z,19.70
2018-05-27T00:58:26.508Z,20.13
2018-05-27T01:00:53.777Z,20.93
2018-05-27T01:03:20.542Z,19.73
2018-05-27T01:05:47.924Z,39.93
2018-05-27T01:08:14.755Z,18.10
2018-05-27T01:10:41.641Z,22.20
2018-05-27T01:13:08.797Z,20.40
2018-05-27T01:15:36.717Z,19.90
2018-05-27T01:18:03.537Z,26.93
2018-05-27T01:20:31.125Z,44.33
2018-05-27T01:22:57.916Z,33.33
2018-05-27T01:25:25.417Z,24.03
2018-05-27T01:27:52.247Z,69.53
2018-05-27T01:30:19.751Z,34.40
2018-05-27T01:32:46.656Z,24.27
2018-05-27T01:35:13.494Z,24.47
2018-05-27T01:37:40.678Z,24.13
2018-05-27T01:40:07.801Z,24.57
2018-05-27T01:42:35.003Z,26.57
2018-05-27T01:45:01.924Z,25.10
2018-05-27T01:47:28.811Z,24.63
2018-05-27T01:49:56.524Z,24.97
2018-05-27T01:52:23.362Z,28.80
2018-05-27T01:54:53.957Z,27.47
2018-05-27T01:57:20.791Z,24.53
2018-05-27T01:59:48.121Z,19.97
2018-05-27T02:02:14.900Z,17.47
2018-05-27T02:04:41.966Z,18.80
2018-05-27T02:07:08.836Z,17.97
2018-05-27T02:09:36.519Z,18.87
2018-05-27T02:12:03.450Z,16.60
2018-05-27T02:14:30.468Z,18.43
2018-05-27T02:16:57.310Z,19.87
2018-05-27T02:19:24.102Z,18.30
2018-05-27T02:21:51.038Z,18.53
2018-05-27T02:24:17.855Z,26.70
2018-05-27T02:26:45.273Z,32.70
2018-05-27T02:29:12.553Z,31.70
2018-05-27T02:31:42.481Z,26.33
2018-05-27T02:34:09.355Z,26.70
2018-05-27T02:36:36.203Z,25.83
2018-05-27T02:39:03.197Z,25.80
2018-05-27T02:41:30.029Z,27.07
2018-05-27T02:43:57.642Z,26.87
2018-05-27T02:46:25.500Z,28.60
2018-05-27T02:48:52.456Z,27.30
2018-05-27T02:51:20.251Z,26.53
2018-05-27T02:53:58.024Z,28.50
2018-05-27T02:56:26.936Z,29.60
2018-05-27T02:58:54.786Z,27.83
2018-05-27T03:01:21.605Z,27.10
2018-05-27T03:03:49.233Z,28.90
2018-05-27T03:06:16.048Z,27.20
2018-05-27T03:08:44.368Z,27.67
2018-05-27T03:11:11.240Z,28.17
2018-05-27T03:13:38.189Z,27.03
2018-05-27T03:16:05.748Z,27.97
2018-05-27T03:18:32.604Z,27.03
2018-05-27T03:20:59.510Z,28.77
2018-05-27T03:23:26.365Z,26.37
2018-05-27T03:25:53.117Z,29.20
2018-05-27T03:28:30.862Z,28.00
2018-05-27T03:30:58.006Z,29.53
2018-05-27T03:33:24.853Z,28.43
2018-05-27T03:35:51.679Z,27.60
2018-05-27T03:38:18.493Z,27.77
2018-05-27T03:40:45.304Z,25.57
2018-05-27T03:43:13.074Z,25.20
2018-05-27T03:45:39.929Z,27.03
2018-05-27T03:48:06.798Z,26.53
2018-05-27T03:50:33.620Z,24.00
2018-05-27T03:53:00.786Z,23.40
2018-05-27T03:55:28.413Z,22.63
2018-05-27T03:57:55.445Z,21.07
2018-05-27T04:00:23.894Z,21.43
2018-05-27T04:02:51.649Z,20.73
2018-05-27T04:05:38.308Z,21.70
2018-05-27T04:08:11.724Z,19.90
2018-05-27T04:10:38.613Z,20.33
2018-05-27T04:13:05.791Z,20.37
2018-05-27T04:15:32.889Z,21.80
2018-05-27T04:18:01.265Z,20.50
2018-05-27T04:20:28.885Z,19.17
2018-05-27T04:22:55.722Z,20.83
2018-05-27T04:25:22.644Z,21.43
2018-05-27T04:27:49.487Z,20.10
2018-05-27T04:30:16.464Z,19.27
2018-05-27T04:32:43.273Z,21.47
2018-05-27T04:35:10.144Z,20.73
2018-05-27T04:37:42.277Z,20.70
2018-05-27T04:40:09.873Z,20.10
2018-05-27T04:42:36.688Z,20.23
2018-05-27T04:45:04.059Z,21.33
2018-05-27T04:47:32.473Z,21.20
2018-05-27T04:49:59.680Z,21.30
2018-05-27T04:52:26.544Z,21.27
2018-05-27T04:54:53.691Z,22.02
2018-05-27T04:57:20.604Z,20.75
2018-05-27T04:59:48.309Z,22.00
2018-05-27T05:15:15.198Z,23.00
2018-05-27T05:17:42.776Z,22.23
2018-05-27T05:20:10.157Z,23.67
2018-05-27T05:22:37.631Z,23.25
2018-05-27T05:25:05.065Z,24.12
2018-05-27T05:27:32.829Z,24.23
2018-05-27T05:29:59.690Z,23.90
2018-05-27T05:32:27.118Z,23.08
2018-05-27T05:34:54.100Z,22.70
2018-05-27T05:37:22.313Z,25.08
2018-05-27T05:39:49.906Z,23.33
2018-05-27T05:42:16.712Z,25.08
2018-05-27T05:44:43.557Z,24.52
2018-05-27T05:47:10.841Z,24.17
2018-05-27T05:49:37.645Z,23.52
2018-05-27T05:52:04.709Z,24.73
2018-05-27T05:54:32.618Z,24.35
2018-05-27T05:57:00.365Z,25.60
2018-05-27T05:59:28.622Z,25.08
2018-05-27T06:01:56.087Z,24.10
2018-05-27T06:04:23.159Z,23.25
2018-05-27T06:06:51.073Z,22.33
2018-05-27T06:09:17.869Z,24.65
2018-05-27T06:11:44.688Z,24.92
2018-05-27T06:14:11.523Z,24.15
2018-05-27T06:16:39.046Z,24.48
2018-05-27T06:19:06.774Z,25.08
2018-05-27T06:21:33.701Z,26.33
2018-05-27T06:24:01.146Z,26.20
2018-05-27T06:26:27.983Z,26.25
2018-05-27T06:28:55.854Z,65.62
2018-05-27T06:31:22.664Z,27.45
2018-05-27T06:33:49.561Z,26.77
2018-05-27T06:36:16.533Z,26.52
2018-05-27T06:38:43.436Z,28.40
2018-05-27T06:41:10.340Z,27.52
2018-05-27T06:43:37.855Z,26.20
2018-05-27T06:46:05.213Z,28.08
2018-05-27T06:48:33.185Z,26.95
2018-05-27T06:50:59.988Z,27.35
2018-05-27T06:53:37.594Z,29.42
2018-05-27T06:56:04.593Z,30.17
2018-05-27T06:58:32.273Z,39.22
2018-05-27T07:01:00.197Z,29.27
2018-05-27T07:03:27.083Z,29.02
2018-05-27T07:05:53.934Z,28.95
2018-05-27T07:08:21.448Z,38.83
2018-05-27T07:10:49.594Z,26.85
2018-05-27T07:13:16.593Z,29.92
2018-05-27T07:15:44.464Z,27.33
2018-05-27T07:18:11.322Z,24.25
2018-05-27T07:20:39.897Z,28.17
2018-05-27T07:23:07.600Z,29.02
2018-05-27T07:25:35.432Z,26.52
2018-05-27T07:28:02.568Z,27.15
2018-05-27T07:30:29.417Z,24.77
2018-05-27T07:32:56.304Z,25.75
2018-05-27T07:35:23.204Z,26.65
2018-05-27T07:37:50.129Z,24.90
2018-05-27T07:46:32.744Z,21.45
2018-05-27T07:49:00.919Z,20.33
2018-05-27T07:51:28.489Z,22.02
2018-05-27T07:53:55.456Z,20.90
2018-05-27T07:56:23.088Z,20.58
2018-05-27T07:58:50.601Z,19.60
2018-05-27T08:01:18.953Z,17.10
2018-05-27T08:03:55.791Z,16.12
2018-05-27T08:06:26.257Z,16.27
2018-05-27T08:08:53.770Z,14.50
2018-05-27T08:11:20.648Z,15.73
2018-05-27T08:13:49.113Z,15.70
2018-05-27T08:16:16.908Z,15.93
2018-05-27T08:18:43.929Z,14.90
2018-05-27T08:21:11.364Z,14.27
2018-05-27T08:23:39.112Z,13.95
2018-05-27T08:26:07.132Z,12.80
2018-05-27T08:28:34.864Z,14.35
2018-05-27T08:31:01.736Z,11.95
2018-05-27T08:33:28.765Z,11.27
2018-05-27T08:35:55.642Z,11.98
2018-05-27T08:38:34.052Z,10.25
2018-05-27T08:41:01.150Z,9.48
2018-05-27T08:43:29.428Z,9.88
2018-05-27T08:46:00.312Z,10.82
2018-05-27T08:48:27.918Z,10.30
2018-05-27T08:50:55.073Z,10.02
2018-05-27T08:53:25.445Z,10.52
2018-05-27T08:56:05.448Z,9.95
2018-05-27T08:58:32.385Z,9.65
2018-05-27T09:01:00.808Z,10.00
2018-05-27T09:03:27.868Z,9.15
2018-05-27T09:05:55.910Z,10.25
2018-05-27T09:08:22.828Z,10.75
2018-05-27T09:10:50.492Z,10.80
2018-05-27T09:13:18.104Z,9.27
2018-05-27T09:15:55.723Z,9.77
2018-05-27T09:18:23.085Z,9.63
2018-05-27T09:20:50.038Z,8.68
2018-05-27T09:23:18.149Z,9.57
2018-05-27T09:25:45.427Z,9.35
2018-05-27T09:28:12.366Z,8.85
2018-05-27T09:30:39.889Z,8.73
2018-05-27T09:33:06.750Z,8.77
2018-05-27T09:35:34.147Z,8.02
2018-05-27T09:38:02.130Z,7.90
2018-05-27T09:40:29.898Z,7.18
2018-05-27T09:42:56.817Z,8.90
2018-05-27T09:45:23.840Z,8.13
2018-05-27T09:47:50.771Z,9.13
2018-05-27T09:50:17.674Z,8.65
2018-05-27T09:52:44.697Z,9.73
2018-05-27T09:55:13.786Z,9.43
2018-05-27T09:57:41.461Z,8.85
2018-05-27T10:00:08.400Z,8.45
2018-05-27T10:02:36.456Z,7.43
2018-05-27T10:05:13.593Z,7.53
2018-05-27T10:07:40.492Z,7.97
2018-05-27T10:12:49.657Z,8.60
2018-05-27T10:15:16.578Z,7.57
2018-05-27T10:17:43.450Z,8.50
2018-05-27T10:20:10.361Z,9.10
2018-05-27T10:22:37.293Z,8.50
2018-05-27T10:25:04.275Z,7.90
2018-05-27T10:27:31.217Z,8.25
2018-05-27T10:29:58.829Z,9.32
2018-05-27T10:32:25.717Z,8.02
2018-05-27T10:34:53.190Z,7.20
2018-05-27T10:37:20.192Z,7.12
2018-05-27T10:39:47.068Z,7.35
2018-05-27T10:42:14.369Z,8.27
2018-05-27T10:44:41.984Z,7.40
2018-05-27T10:47:08.992Z,7.80
2018-05-27T10:49:36.343Z,7.32
2018-05-27T10:52:04.067Z,7.82
2018-05-27T10:54:31.425Z,7.18
2018-05-27T10:56:58.333Z,7.62
2018-05-27T10:59:25.224Z,6.75
2018-05-27T11:01:53.308Z,6.05
2018-05-27T11:04:20.160Z,6.18
2018-05-27T11:06:47.984Z,7.07
2018-05-27T11:09:15.354Z,7.90
2018-05-27T11:11:42.292Z,7.65
2018-05-27T11:14:10.202Z,7.90
2018-05-27T11:16:37.027Z,7.12
2018-05-27T11:19:03.857Z,6.87
2018-05-27T11:21:30.788Z,6.47
2018-05-27T11:23:57.729Z,5.93
2018-05-27T11:26:24.809Z,6.20
2018-05-27T11:28:52.265Z,5.68
2018-05-27T11:31:19.161Z,6.37
2018-05-27T11:33:46.052Z,7.07
2018-05-27T11:36:12.863Z,7.00
2018-05-27T11:38:39.980Z,6.97
2018-05-27T11:41:07.606Z,7.25
2018-05-27T11:43:34.444Z,7.12
2018-05-27T11:46:01.278Z,7.35
2018-05-27T11:48:28.206Z,7.20
2018-05-27T11:50:55.746Z,7.50
2018-05-27T11:53:23.126Z,6.45
2018-05-27T11:55:50.676Z,6.40
2018-05-27T11:58:17.552Z,7.97
2018-05-27T12:00:45.120Z,6.70
2018-05-27T12:03:12.768Z,7.22
2018-05-27T12:05:39.624Z,7.28
2018-05-27T12:08:06.511Z,6.80
2018-05-27T12:10:39.781Z,7.30
2018-05-27T12:13:06.625Z,6.90
2018-05-27T12:15:33.572Z,7.82
2018-05-27T12:18:00.474Z,6.55
2018-05-27T12:20:28.029Z,7.00
2018-05-27T12:22:54.901Z,7.00
2018-05-27T12:25:22.434Z,6.95
2018-05-27T12:27:49.948Z,7.07
2018-05-27T12:30:17.398Z,6.93
2018-05-27T12:32:44.216Z,7.15
2018-05-27T12:35:11.544Z,7.15
2018-05-27T12:37:38.391Z,7.97
2018-05-27T12:40:05.477Z,7.03
2018-05-27T12:42:32.345Z,6.65
2018-05-27T12:44:59.981Z,6.97
2018-05-27T12:47:27.449Z,7.12
2018-05-27T12:49:54.301Z,6.68
2018-05-27T12:52:21.182Z,6.07
2018-05-27T12:54:47.988Z,6.45
2018-05-27T12:57:14.761Z,6.47
2018-05-27T12:59:41.851Z,6.30
2018-05-27T13:02:08.881Z,6.43
2018-05-27T13:04:35.776Z,6.80
2018-05-27T13:07:02.668Z,7.20
2018-05-27T13:09:29.438Z,6.47
2018-05-27T13:11:56.528Z,6.25
2018-05-27T13:14:23.390Z,6.72
2018-05-27T13:16:50.458Z,6.57
2018-05-27T13:19:17.136Z,5.95
2018-05-27T13:21:53.916Z,5.95
2018-05-27T13:24:20.764Z,6.22
2018-05-27T13:26:47.565Z,5.93
2018-05-27T13:29:14.428Z,5.68
2018-05-27T13:31:41.332Z,6.35
2018-05-27T13:34:08.163Z,6.28
2018-05-27T13:36:35.033Z,5.43
2018-05-27T13:39:01.885Z,6.10
2018-05-27T13:41:28.787Z,5.68
2018-05-27T13:43:55.645Z,5.40
2018-05-27T13:46:23.405Z,5.50
2018-05-27T13:48:50.940Z,5.80
2018-05-27T13:51:18.748Z,6.10
2018-05-27T13:53:46.381Z,6.28
2018-05-27T13:56:13.587Z,5.80
2018-05-27T13:58:40.452Z,5.85
2018-05-27T14:01:07.310Z,6.97
2018-05-27T14:03:34.101Z,5.85
2018-05-27T14:06:00.914Z,6.12
2018-05-27T14:08:28.144Z,5.68
2018-05-27T14:11:00.058Z,5.37
2018-05-27T14:13:26.941Z,5.78
2018-05-27T14:15:54.086Z,5.70
2018-05-27T14:18:20.904Z,5.72
2018-05-27T14:20:48.489Z,5.80
2018-05-27T14:23:15.264Z,6.10
2018-05-27T14:25:43.164Z,5.50
2018-05-27T14:28:09.942Z,6.18
2018-05-27T14:30:36.881Z,6.22
2018-05-27T14:33:03.759Z,6.53
2018-05-27T14:35:31.073Z,6.00
2018-05-27T14:37:57.957Z,5.72
2018-05-27T14:40:24.786Z,5.70
2018-05-27T14:42:52.295Z,5.40
2018-05-27T14:45:19.357Z,5.43
2018-05-27T14:47:47.069Z,5.18
2018-05-27T14:50:14.720Z,5.35
2018-05-27T14:52:42.661Z,5.32
2018-05-27T14:55:10.493Z,5.07
2018-05-27T14:57:37.436Z,5.40
2018-05-27T15:00:06.044Z,5.80
2018-05-27T15:02:32.978Z,6.05
2018-05-27T15:04:59.809Z,5.62
2018-05-27T15:07:27.691Z,5.97
2018-05-27T15:09:54.724Z,5.53
2018-05-27T15:12:23.613Z,5.35
2018-05-27T15:14:51.324Z,5.75
2018-05-27T15:17:18.236Z,5.53
2018-05-27T15:19:45.127Z,5.20
2018-05-27T15:22:12.527Z,5.75
2018-05-27T15:24:40.653Z,5.03
2018-05-27T15:27:07.993Z,5.65
2018-05-27T15:29:35.275Z,5.93
2018-05-27T15:32:12.115Z,5.80
2018-05-27T15:34:38.973Z,5.68
2018-05-27T15:37:05.818Z,5.50
2018-05-27T15:39:32.737Z,5.20
2018-05-27T15:42:00.119Z,5.90
2018-05-27T15:44:27.055Z,5.80
2018-05-27T15:46:53.947Z,6.15
2018-05-27T15:49:20.894Z,5.75
2018-05-27T15:51:49.727Z,4.80
2018-05-27T15:54:16.624Z,5.30
2018-05-27T15:56:44.449Z,5.28
2018-05-27T15:59:12.780Z,5.35
2018-05-27T16:01:39.721Z,5.20
2018-05-27T16:04:06.743Z,5.40
2018-05-27T16:06:33.640Z,5.93
2018-05-27T16:09:03.524Z,6.10
2018-05-27T16:11:40.441Z,5.93
2018-05-27T16:14:08.213Z,5.93
2018-05-27T16:16:36.332Z,6.20
2018-05-27T16:19:08.704Z,5.87
2018-05-27T16:21:36.409Z,5.95
2018-05-27T16:24:04.208Z,6.47
2018-05-27T16:26:31.113Z,6.60
2018-05-27T16:28:58.128Z,7.25
2018-05-27T16:31:25.065Z,6.97
2018-05-27T16:33:51.978Z,6.80
2018-05-27T16:36:18.959Z,6.70
2018-05-27T16:38:46.044Z,6.62
2018-05-27T16:41:13.888Z,6.60
2018-05-27T16:43:41.875Z,6.62
2018-05-27T16:46:08.837Z,6.95
2018-05-27T16:48:35.917Z,6.28
2018-05-27T16:51:02.835Z,7.43
2018-05-27T16:53:30.132Z,7.15
2018-05-27T16:55:57.060Z,7.47
2018-05-27T16:58:24.232Z,6.90
2018-05-27T17:00:51.987Z,7.03
2018-05-27T17:03:19.001Z,6.82
2018-05-27T17:05:45.887Z,6.75
2018-05-27T17:08:12.941Z,7.15
2018-05-27T17:10:40.345Z,6.53
2018-05-27T17:13:07.474Z,6.78
2018-05-27T17:15:34.434Z,6.72
2018-05-27T17:18:02.429Z,6.45
2018-05-27T17:20:30.092Z,6.05
2018-05-27T17:22:57.887Z,5.75
2018-05-27T17:25:25.976Z,6.25
2018-05-27T17:27:53.180Z,6.28
2018-05-27T17:30:20.089Z,6.97
2018-05-27T17:32:47.971Z,6.35
2018-05-27T17:35:14.819Z,7.00
2018-05-27T17:37:43.388Z,6.75
2018-05-27T17:40:10.244Z,7.30
2018-05-27T17:42:37.455Z,6.68
2018-05-27T17:45:04.558Z,6.75
2018-05-27T17:47:32.112Z,6.07
2018-05-27T17:49:58.944Z,6.65
2018-05-27T17:52:27.259Z,7.00
2018-05-27T17:54:56.907Z,6.55
2018-05-27T17:57:26.063Z,6.55
2018-05-27T17:59:54.001Z,6.53
2018-05-27T18:02:22.461Z,6.43
2018-05-27T18:04:50.269Z,6.40
2018-05-27T18:07:22.497Z,6.85
2018-05-27T18:09:52.258Z,6.60
2018-05-27T18:12:19.197Z,6.87
2018-05-27T18:14:46.034Z,6.93
2018-05-27T18:17:14.624Z,6.28
2018-05-27T18:19:42.940Z,6.43
2018-05-27T18:22:11.589Z,6.82
2018-05-27T18:24:38.950Z,6.57
2018-05-27T18:27:05.986Z,6.93
2018-05-27T18:29:33.397Z,6.40
2018-05-27T18:32:00.237Z,6.87
2018-05-27T18:34:27.339Z,6.72
2018-05-27T18:36:54.683Z,6.78
2018-05-27T18:39:22.444Z,6.72
2018-05-27T18:41:49.616Z,6.70
2018-05-27T18:44:17.957Z,6.93
2018-05-27T18:46:54.840Z,6.35
2018-05-27T18:49:21.688Z,6.93
2018-05-27T18:51:50.660Z,6.15
2018-05-27T18:54:18.897Z,7.17
2018-05-27T18:56:47.239Z,6.73
2018-05-27T18:59:35.769Z,6.82
2018-05-27T19:02:03.102Z,6.90
2018-05-27T19:04:31.261Z,7.13
2018-05-27T19:06:58.130Z,7.43
2018-05-27T19:09:25.005Z,7.70
2018-05-27T19:11:52.392Z,7.50
2018-05-27T19:14:20.321Z,7.83
2018-05-27T19:16:58.092Z,7.67
2018-05-27T19:19:25.073Z,8.03
2018-05-27T19:21:52.050Z,7.43
2018-05-27T19:24:19.608Z,7.20
2018-05-27T19:26:46.711Z,6.73
2018-05-27T19:29:19.680Z,6.60
2018-05-27T19:31:46.457Z,7.20
2018-05-27T19:34:14.124Z,7.00
2018-05-27T19:36:41.696Z,6.97
2018-05-27T19:39:09.840Z,6.77
2018-05-27T19:41:36.721Z,7.57
2018-05-27T19:44:03.494Z,8.17
2018-05-27T19:46:30.241Z,8.70
2018-05-27T19:48:57.013Z,9.10
2018-05-27T19:51:23.808Z,8.93
2018-05-27T19:53:50.557Z,7.90
2018-05-27T19:56:17.630Z,9.17
2018-05-27T19:58:44.421Z,9.20
2018-05-27T20:01:11.234Z,9.07
2018-05-27T20:03:38.029Z,9.23
2018-05-27T20:06:05.460Z,9.70
2018-05-27T20:08:32.221Z,9.00
2018-05-27T20:10:58.988Z,9.60
2018-05-27T20:13:25.742Z,9.47
2018-05-27T20:15:53.022Z,9.47
2018-05-27T20:18:24.782Z,10.33
2018-05-27T20:20:51.624Z,9.87
2018-05-27T20:23:18.928Z,10.13
2018-05-27T20:25:45.709Z,9.57
2018-05-27T20:28:13.157Z,10.10
2018-05-27T20:30:39.968Z,10.03
2018-05-27T20:33:06.717Z,9.60
2018-05-27T20:35:33.546Z,10.13
2018-05-27T20:38:00.534Z,9.80
2018-05-27T20:40:27.397Z,9.87
2018-05-27T20:42:54.173Z,10.07
2018-05-27T20:45:21.438Z,11.03
2018-05-27T20:47:48.241Z,10.33
2018-05-27T20:50:16.053Z,11.37
2018-05-27T20:52:43.104Z,11.33
2018-05-27T20:55:09.869Z,12.37
2018-05-27T20:57:36.665Z,12.27
2018-05-27T21:00:06.516Z,11.37
2018-05-27T21:02:35.405Z,11.67
2018-05-27T21:05:02.382Z,12.20
2018-05-27T21:07:29.158Z,12.47
2018-05-27T21:09:56.514Z,11.57
2018-05-27T21:12:23.314Z,12.17
2018-05-27T21:14:50.070Z,13.27
2018-05-27T21:17:16.933Z,11.83
2018-05-27T21:19:44.389Z,12.00
2018-05-27T21:22:11.204Z,12.40
2018-05-27T21:24:38.066Z,13.10
2018-05-27T21:27:06.381Z,13.30
2018-05-27T21:29:33.206Z,12.80
2018-05-27T21:32:00.049Z,12.37
2018-05-27T21:34:26.856Z,13.40
2018-05-27T21:36:54.313Z,12.93
2018-05-27T21:39:21.085Z,12.83
2018-05-27T21:41:49.966Z,13.47
2018-05-27T21:44:16.857Z,14.70
2018-05-27T21:46:43.660Z,13.53
2018-05-27T21:49:10.461Z,13.80
2018-05-27T21:51:37.261Z,14.47
2018-05-27T21:54:04.054Z,13.47
2018-05-27T21:56:30.831Z,13.60
2018-05-27T21:58:57.820Z,13.90
2018-05-27T22:01:24.736Z,14.37
2018-05-27T22:03:51.624Z,14.97
2018-05-27T22:06:18.388Z,13.83
2018-05-27T22:08:45.138Z,14.60
2018-05-27T22:11:11.976Z,15.27
2018-05-27T22:13:38.765Z,14.60
2018-05-27T22:16:05.561Z,14.13
2018-05-27T22:18:32.305Z,14.20
2018-05-27T22:20:59.050Z,14.23
2018-05-27T22:30:10.673Z,13.73
2018-05-27T22:32:37.510Z,15.83
2018-05-27T22:35:04.282Z,14.53
2018-05-27T22:37:31.156Z,15.67
2018-05-27T22:39:57.971Z,14.60
2018-05-27T22:42:24.835Z,15.10
2018-05-27T22:44:52.272Z,15.27
2018-05-27T22:47:19.131Z,14.60
2018-05-27T22:49:45.965Z,15.37
2018-05-27T22:52:12.821Z,15.23
2018-05-27T22:54:39.625Z,14.57
2018-05-27T22:57:06.385Z,15.33
2018-05-27T22:59:33.192Z,15.67
2018-05-27T23:01:59.977Z,15.47
2018-05-27T23:04:27.176Z,15.13
2018-05-27T23:06:53.959Z,15.60
2018-05-27T23:09:20.716Z,15.63
2018-05-27T23:11:47.497Z,14.30
2018-05-27T23:14:14.556Z,15.23
2018-05-27T23:16:41.365Z,15.20
2018-05-27T23:19:08.157Z,14.50
2018-05-27T23:21:34.934Z,14.57
2018-05-27T23:24:01.679Z,15.30
2018-05-27T23:26:28.493Z,15.50
2018-05-27T23:28:55.256Z,15.47
2018-05-27T23:31:22.394Z,14.83
2018-05-27T23:33:49.145Z,15.60
2018-05-27T23:36:15.972Z,15.23
2018-05-27T23:38:42.760Z,15.17
2018-05-27T23:41:09.561Z,15.00
2018-05-27T23:43:36.314Z,15.70
2018-05-27T23:46:03.423Z,14.47
2018-05-27T23:48:30.212Z,14.73
2018-05-27T23:50:57.057Z,14.07
2018-05-27T23:53:23.886Z,14.97
2018-05-27T23:55:50.649Z,13.90
2018-05-27T23:58:17.493Z,14.70
